Latest Weather Observations for Emerald

IDQ60801

Issued at 3:05 pm EST Wednesday 26 November 2014 (issued every 30 minutes, with the page automatically refreshed every 10 minutes)

About weather observations | Map of weather stations | Latest weather observations for QLD | Other Formats
Station Details ID: 035264 Name: EMERALD AIRPORT Lat: -23.57 Lon: 148.18 Height: 189.4 m
Data from the previous 72 hours. | See also: Recent months at Emerald
Date/Time
EST
Temp
°C
App
Temp
°C
Dew
Point
Rel
Hum
%
Delta-T
°C
Wind Press
QNH
hPa
Press
MSL
hPa
Rain
since 9 am
mm
Dir
 
Spd
km/h
Gust
km/h
Spd
kts
Gust
kts
26/03:00pm 35.7 33.1 12.0 24 14.3 ENE 17 28 9 15 1010.7 1009.5 0.0
26/02:30pm 36.0 33.1 14.1 27 13.6 E 22 30 12 16 1011.1 - 0.0
26/02:00pm 34.9 33.6 13.7 28 13.0 E 13 22 7 12 1011.6 - 0.0
26/01:30pm 35.2 34.4 15.0 30 12.7 NE 13 28 7 15 1012.1 - 0.0
26/01:00pm 35.2 33.8 15.5 30 12.4 ENE 17 28 9 15 1012.6 - 0.0
26/12:30pm 33.7 32.7 15.7 34 11.4 ENE 15 24 8 13 1013.2 - 0.0
26/12:00pm 32.6 32.1 16.0 36 10.5 NNE 13 24 7 13 1013.9 1012.7 0.0
26/11:30am 32.6 31.0 16.0 36 10.5 E 19 28 10 15 1014.2 - 0.0
26/11:00am 32.7 31.9 16.1 37 10.5 ENE 15 24 8 13 1014.5 - 0.0
26/10:30am 31.6 29.8 16.0 39 9.8 NE 20 32 11 17 1014.9 - 0.0
26/10:00am 31.5 30.1 16.6 40 9.4 ENE 19 30 10 16 1015.0 - 0.0
26/09:30am 30.2 28.9 17.3 46 8.2 ENE 20 28 11 15 1015.2 - 0.0
26/09:00am 29.5 30.1 19.5 55 6.6 ENE 15 26 8 14 1015.3 1014.1 0.0
26/08:30am 28.2 29.0 19.1 57 5.9 N 13 20 7 11 1015.5 - 0.0
26/08:00am 27.6 27.9 19.7 62 5.2 ENE 17 24 9 13 1015.5 - 0.0
26/07:30am 27.1 27.5 19.9 64 4.7 ENE 17 24 9 13 1015.6 - 0.0
26/07:00am 26.0 26.5 20.1 70 3.9 NE 17 22 9 12 1015.6 - 0.0
26/06:30am 26.1 27.4 20.9 73 3.4 ENE 15 20 8 11 1015.2 - 0.0
26/06:00am 24.9 26.1 20.6 77 2.8 NE 15 20 8 11 1014.6 1013.4 0.0
26/05:30am 24.5 26.1 20.8 80 2.4 ENE 13 17 7 9 1014.5 - 0.0
26/05:00am 24.9 25.8 20.8 78 2.7 E 17 20 9 11 1014.2 - 0.0
26/04:30am 24.7 26.3 20.8 79 2.6 ENE 13 19 7 10 1014.0 - 0.0
26/04:00am 24.7 26.4 21.0 80 2.4 E 13 17 7 9 1013.9 - 0.0
26/03:30am 24.9 26.5 20.8 78 2.7 E 13 17 7 9 1013.4 - 0.0
26/03:00am 24.9 26.6 21.0 79 2.6 E 13 19 7 10 1013.4 1012.3 0.0
26/02:30am 24.6 26.5 19.7 74 3.2 ENE 9 13 5 7 1013.2 - 0.0
26/02:00am 24.2 25.0 18.2 69 3.8 E 11 13 6 7 1013.2 - 0.0
26/01:30am 24.2 24.6 18.2 69 3.8 SE 13 15 7 8 1013.5 - 0.0
26/01:00am 24.6 25.5 18.5 69 3.9 ENE 11 15 6 8 1013.4 - 0.0
26/12:30am 25.0 25.5 18.4 66 4.2 NE 13 19 7 10 1013.4 - 0.0
26/12:00am 25.4 25.4 17.3 61 5.1 NE 13 22 7 12 1013.8 1012.6 0.0
 
Date/Time
EST
Temp
°C
App
Temp
°C
Dew
Point
Rel
Hum
%
Delta-T
°C
Wind Press
QNH
hPa
Press
MSL
hPa
Rain
since 9 am
mm
Dir
 
Spd
km/h
Gust
km/h
Spd
kts
Gust
kts
25/11:30pm 25.9 24.9 16.5 56 5.8 NE 17 20 9 11 1013.9 - 0.0
25/11:00pm 26.4 24.7 15.8 52 6.5 NE 19 28 10 15 1014.1 - 0.0
25/10:30pm 27.1 24.1 12.0 39 8.8 NE 19 28 10 15 1014.2 - 0.0
25/10:00pm 28.3 25.6 13.0 39 9.1 NE 19 26 10 14 1013.9 - 0.0
25/09:30pm 28.9 26.7 14.3 40 8.9 NNE 19 24 10 13 1013.4 - 0.0
25/09:00pm 29.7 27.2 13.5 37 9.7 NE 19 28 10 15 1012.8 1011.7 0.0
25/08:30pm 30.1 27.2 13.0 35 10.2 NE 20 30 11 16 1012.3 - 0.0
25/08:00pm 29.4 28.3 11.9 34 10.3 ENE 9 11 5 6 1011.8 - 0.0
25/07:30pm 30.7 29.4 11.1 30 11.4 NE 9 13 5 7 1011.7 - 0.0
25/07:00pm 31.8 29.7 11.0 28 12.1 ENE 13 15 7 8 1011.3 - 0.0
25/06:30pm 32.8 30.4 11.3 27 12.7 ENE 15 20 8 11 1011.0 - 0.0
25/06:00pm 34.1 31.3 11.3 25 13.5 NE 17 22 9 12 1010.7 1009.5 0.0
25/05:30pm 34.6 32.3 11.7 25 13.7 NNE 15 22 8 12 1010.4 - 0.0
25/05:00pm 35.4 32.3 11.7 23 14.2 E 19 26 10 14 1010.1 - 0.0
25/04:30pm 35.6 32.8 13.1 25 13.8 E 20 24 11 13 1010.0 - 0.0
25/04:00pm 35.0 33.0 12.6 26 13.6 ENE 15 24 8 13 1010.3 - 0.0
25/03:30pm 35.0 32.8 13.2 27 13.3 ENE 17 28 9 15 1010.7 - 0.0
25/03:00pm 34.9 33.4 13.1 27 13.3 ENE 13 22 7 12 1011.1 1010.0 0.0
25/02:30pm 34.5 32.3 13.3 27 12.9 NE 17 24 9 13 1011.4 - 0.0
25/02:00pm 34.6 32.4 14.5 30 12.5 SE 19 33 10 18 1011.6 - 0.0
25/01:30pm 35.1 31.8 14.9 29 12.7 E 26 39 14 21 1011.8 - 0.0
25/01:00pm 34.3 33.3 14.7 30 12.2 ENE 13 24 7 13 1012.2 - 0.0
25/12:30pm 33.4 33.2 16.7 36 10.7 E 13 22 7 12 1012.8 - 0.0
25/12:00pm 32.3 32.2 17.0 40 9.8 N 13 20 7 11 1013.4 1012.3 0.0
25/11:30am 31.5 32.0 16.6 40 9.4 NNE 9 22 5 12 1014.0 - 0.0
25/11:00am 31.7 31.5 17.6 43 9.1 NE 15 26 8 14 1014.4 - 0.0
25/10:30am 30.3 29.9 16.3 42 8.8 ESE 13 24 7 13 1014.8 - 0.0
25/10:00am 30.1 29.6 17.9 48 7.8 E 17 26 9 14 1015.1 - 0.0
25/09:30am 28.2 28.8 18.6 56 6.2 N 13 22 7 12 1015.4 - 0.0
25/09:00am 27.3 27.5 18.6 59 5.6 N 15 20 8 11 1015.9 1014.8 0.0
25/08:30am 27.0 26.9 18.8 60 5.3 NNE 17 22 9 12 1016.0 - 0.0
25/08:00am 26.7 27.0 19.6 65 4.6 NNE 17 22 9 12 1015.9 - 0.0
25/07:30am 25.4 25.2 19.3 69 3.9 NE 19 24 10 13 1015.8 - 0.0
25/07:00am 25.2 26.0 19.8 72 3.5 ENE 15 20 8 11 1015.7 - 0.0
25/06:30am 24.0 25.4 19.5 76 2.9 E 11 13 6 7 1015.5 - 0.0
25/06:00am 22.9 23.8 19.3 80 2.3 ENE 13 19 7 10 1014.9 1013.7 0.0
25/05:30am 21.8 23.1 19.2 85 1.7 ESE 11 13 6 7 1015.0 - 0.0
25/05:00am 21.6 22.5 19.3 87 1.5 E 13 15 7 8 1014.6 - 0.0
25/04:30am 21.7 23.1 18.7 83 1.9 E 9 11 5 6 1014.4 - 0.0
25/04:00am 22.4 23.9 19.0 81 2.2 ENE 9 11 5 6 1014.1 - 0.0
25/03:30am 22.7 23.7 18.7 78 2.5 NE 11 17 6 9 1013.5 - 0.0
25/03:00am 23.4 23.8 18.9 76 2.9 NNE 15 19 8 10 1013.5 1012.4 0.0
25/02:30am 23.6 23.9 18.7 74 3.1 NNE 15 19 8 10 1013.4 - 0.0
25/02:00am 23.6 24.2 18.5 73 3.2 NNE 13 17 7 9 1013.4 - 0.0
25/01:30am 23.5 23.6 18.4 73 3.2 NNE 15 19 8 10 1013.8 - 0.0
25/01:00am 23.8 23.5 18.2 71 3.5 N 17 24 9 13 1014.1 - 0.0
25/12:30am 24.2 23.5 18.2 69 3.8 NNE 19 24 10 13 1014.2 - 0.0
25/12:00am 24.5 23.6 17.7 66 4.3 NE 19 28 10 15 1014.5 1013.3 0.0
 
Date/Time
EST
Temp
°C
App
Temp
°C
Dew
Point
Rel
Hum
%
Delta-T
°C
Wind Press
QNH
hPa
Press
MSL
hPa
Rain
since 9 am
mm
Dir
 
Spd
km/h
Gust
km/h
Spd
kts
Gust
kts
24/11:30pm 25.0 22.8 17.0 61 5.0 NE 24 35 13 19 1014.5 - 0.0
24/11:00pm 25.4 25.2 17.6 62 4.9 NNE 15 22 8 12 1014.7 - 0.0
24/10:30pm 25.8 24.3 17.7 61 5.1 NE 22 35 12 19 1014.5 - 0.0
24/10:00pm 26.5 23.9 17.8 58 5.5 NE 28 41 15 22 1014.1 - 0.0
24/09:30pm 27.0 24.4 17.8 57 5.9 NE 28 41 15 22 1013.9 - 0.0
24/09:00pm 28.0 24.9 17.5 52 6.7 NE 30 43 16 23 1013.5 1012.4 0.0
24/08:30pm 29.3 26.3 16.8 47 7.9 NNE 28 39 15 21 1012.8 - 0.0
24/08:00pm 30.3 27.4 15.2 40 9.3 NE 24 33 13 18 1012.3 - 0.0
24/07:30pm 31.4 29.9 14.1 35 10.6 ENE 15 20 8 11 1011.6 - 0.0
24/07:00pm 32.2 30.4 13.4 32 11.4 ENE 15 20 8 11 1011.3 - 0.0
24/06:30pm 33.0 31.6 12.1 28 12.5 ENE 11 15 6 8 1010.9 - 0.0
24/06:00pm 34.0 32.1 11.8 26 13.2 ENE 13 17 7 9 1010.6 1009.4 0.0
24/05:30pm 34.4 32.4 11.5 25 13.6 ENE 13 19 7 10 1010.2 - 0.0
24/05:00pm 34.8 32.0 11.2 24 14.0 NE 17 22 9 12 1010.2 - 0.0
24/04:30pm 34.9 31.9 11.9 24 13.8 NE 19 24 10 13 1010.2 - 0.0
24/04:00pm 35.1 32.9 12.1 25 13.8 ENE 15 28 8 15 1010.4 - 0.0
24/03:30pm 34.5 31.8 11.6 25 13.6 NE 17 24 9 13 1010.6 - 0.0
24/03:00pm 34.6 31.7 12.3 26 13.4 NNE 19 26 10 14 1011.2 1010.1 0.0
24/02:30pm 34.3 31.1 12.0 25 13.4 NE 20 33 11 18 1011.6 - 0.0
24/02:00pm 33.8 31.0 12.7 27 12.7 NE 19 30 10 16 1012.1 - 0.0
24/01:30pm 34.2 30.8 12.5 27 13.1 NE 22 35 12 19 1012.5 - 0.0
24/01:00pm 33.0 32.5 12.6 29 12.3 E 7 33 4 18 1013.1 - 0.0
24/12:30pm 32.5 29.7 12.7 30 11.9 ENE 19 28 10 15 1013.8 - 0.0
24/12:00pm 32.0 29.6 12.8 31 11.5 NNE 17 32 9 17 1014.5 1013.3 0.0
24/11:30am 30.8 28.3 13.6 35 10.4 ENE 19 30 10 16 1015.0 - 0.0
24/11:00am 31.4 28.9 14.1 35 10.6 ENE 20 33 11 18 1015.5 - 0.0
24/10:30am 30.7 28.3 15.5 39 9.5 ENE 22 35 12 19 1016.0 - 0.0
24/10:00am 30.1 28.7 16.9 45 8.4 ENE 20 35 11 19 1016.4 - 0.0
24/09:30am 29.4 28.0 16.6 46 8.1 ENE 19 24 10 13 1016.6 - 0.0
24/09:00am 27.8 27.2 16.7 50 7.0 NNE 15 24 8 13 1017.0 1015.9 0.0
24/08:30am 26.0 26.1 18.4 63 4.9 NNE 15 24 8 13 1017.4 - 0.0
24/08:00am 25.3 25.1 18.5 66 4.3 ENE 17 24 9 13 1017.4 - 0.0
24/07:30am 24.8 24.9 19.2 71 3.6 ENE 17 24 9 13 1017.2 - 0.0
24/07:00am 24.3 24.4 19.1 73 3.3 ENE 17 24 9 13 1017.0 - 0.0
24/06:30am 23.3 23.4 19.2 78 2.6 E 17 19 9 10 1016.7 - 0.0
24/06:00am 22.5 23.2 18.9 80 2.3 E 13 17 7 9 1016.5 1015.4 0.0
24/05:30am 21.7 23.7 19.1 85 1.7 E 7 9 4 5 1016.4 - 0.0
24/05:00am 21.7 23.3 19.1 85 1.7 ENE 9 11 5 6 1016.0 - 0.0
24/04:30am 22.0 23.5 18.8 82 2.0 NE 9 11 5 6 1015.7 - 0.0
24/04:00am 22.6 24.1 19.0 80 2.3 NE 9 13 5 7 1015.8 - 0.0
24/03:30am 22.7 23.8 18.9 79 2.4 NE 11 17 6 9 1015.4 - 0.0
24/03:00am 23.1 23.4 18.8 77 2.7 NE 15 19 8 10 1015.2 1014.0 0.0
24/02:30am 23.4 22.7 18.7 75 3.0 NE 20 26 11 14 1015.1 - 0.0
24/02:00am 23.6 23.2 18.9 75 3.0 NE 19 24 10 13 1015.0 - 0.0
24/01:30am 24.0 23.7 19.1 74 3.1 NE 19 26 10 14 1015.0 - 0.0
24/01:00am 24.3 23.9 18.9 72 3.5 NE 19 28 10 15 1015.2 - 0.0
24/12:30am 24.7 23.7 18.9 70 3.7 NNE 22 32 12 17 1015.4 - 0.0
24/12:00am 25.1 23.7 18.8 68 4.0 NE 24 33 13 18 1015.6 1014.4 0.0
 
Date/Time
EST
Temp
°C
App
Temp
°C
Dew
Point
Rel
Hum
%
Delta-T
°C
Wind Press
QNH
hPa
Press
MSL
hPa
Rain
since 9 am
mm
Dir
 
Spd
km/h
Gust
km/h
Spd
kts
Gust
kts
23/11:30pm 25.6 24.2 18.8 66 4.4 NNE 24 33 13 18 1015.4 - 0.0
23/11:00pm 26.5 24.6 18.6 62 5.1 NE 26 33 14 18 1015.4 - 0.0
23/10:30pm 27.4 26.6 18.1 57 5.9 NE 19 26 10 14 1015.2 - 0.0
23/10:00pm 28.1 27.2 18.2 55 6.4 NE 20 28 11 15 1015.0 - 0.0
23/09:30pm 28.9 27.7 17.4 49 7.3 ENE 20 28 11 15 1014.6 - 0.0
23/09:00pm 30.1 28.3 15.4 41 9.1 NE 19 28 10 15 1014.1 1012.9 0.0
23/08:30pm 31.5 29.5 12.8 32 11.2 ENE 15 35 8 19 1013.2 - 0.0
23/08:00pm 31.7 30.2 13.0 32 11.3 ENE 13 22 7 12 1012.6 - 0.0
23/07:30pm 31.3 29.8 13.1 33 10.9 E 13 15 7 8 1012.3 - 0.0
23/07:00pm 32.1 30.1 12.8 30 11.6 ENE 15 20 8 11 1012.2 - 0.0
23/06:30pm 33.4 30.9 12.4 28 12.6 ENE 17 20 9 11 1012.0 - 0.0
23/06:00pm 34.3 31.7 13.2 28 12.9 E 19 24 10 13 1011.8 1010.7 0.0
23/05:30pm 35.0 31.6 13.8 28 13.1 ENE 24 33 13 18 1011.4 - 0.0
23/05:00pm 36.1 34.2 14.1 26 13.7 E 17 30 9 16 1011.4 - 0.0
23/04:30pm 36.5 34.3 14.5 27 13.8 ENE 19 30 10 16 1011.4 - 0.0
23/04:00pm 36.3 33.7 13.7 25 14.0 ENE 20 32 11 17 1011.4 - 0.0
23/03:30pm 36.5 34.5 13.9 26 14.0 ENE 17 22 9 12 1011.9 - 0.0

Other Formats:

Comma delimited format used in spreadsheet applications
http://www.bom.gov.au/fwo/IDQ60801/IDQ60801.94363.axf

JavaScript Object Notation format (JSON) in row-major order
http://www.bom.gov.au/fwo/IDQ60801/IDQ60801.94363.json